createdAt,value
2023-04-14T00:02:01.668Z,47.30
2023-04-14T00:04:30.055Z,46.80
2023-04-14T00:06:59.946Z,46.70
2023-04-14T00:09:30.007Z,46.60
2023-04-14T00:11:58.347Z,46.40
2023-04-14T00:14:26.484Z,47.00
2023-04-14T00:16:54.754Z,46.20
2023-04-14T00:19:23.132Z,46.10
2023-04-14T00:21:51.487Z,46.30
2023-04-14T00:24:19.627Z,46.40
2023-04-14T00:26:49.233Z,46.40
2023-04-14T00:29:17.370Z,46.30
2023-04-14T00:31:45.668Z,46.20
2023-04-14T00:34:14.036Z,46.10
2023-04-14T00:36:42.237Z,46.20
2023-04-14T00:39:10.387Z,46.00
2023-04-14T00:41:38.545Z,46.10
2023-04-14T00:44:08.339Z,46.30
2023-04-14T00:46:37.405Z,46.30
2023-04-14T00:49:06.140Z,46.20
2023-04-14T00:51:35.150Z,46.00
2023-04-14T00:54:06.416Z,45.90
2023-04-14T00:56:34.998Z,45.60
2023-04-14T00:59:04.316Z,45.50
2023-04-14T01:01:36.609Z,45.50
2023-04-14T01:04:05.783Z,45.40
2023-04-14T01:06:37.380Z,45.30
2023-04-14T01:09:06.441Z,45.30
2023-04-14T01:11:47.061Z,45.40
2023-04-14T01:14:23.924Z,45.40
2023-04-14T01:16:57.198Z,45.50
2023-04-14T01:19:43.535Z,45.60
2023-04-14T01:22:16.752Z,46.50
2023-04-14T01:25:06.923Z,45.90
2023-04-14T01:27:44.868Z,46.00
2023-04-14T01:30:28.494Z,46.40
2023-04-14T01:33:02.965Z,46.20
2023-04-14T01:35:37.928Z,46.60
2023-04-14T01:38:10.657Z,47.10
2023-04-14T01:40:46.756Z,46.90
2023-04-14T01:43:15.792Z,46.60
2023-04-14T01:45:50.540Z,46.30
2023-04-14T01:48:20.787Z,46.20
2023-04-14T01:50:50.596Z,46.50
2023-04-14T01:53:20.618Z,46.70
2023-04-14T01:55:51.001Z,47.30
2023-04-14T01:58:21.608Z,47.40
2023-04-14T02:00:52.859Z,46.80
2023-04-14T02:03:24.421Z,46.80
2023-04-14T02:05:55.981Z,46.60
2023-04-14T02:08:25.365Z,46.80
2023-04-14T02:10:55.081Z,46.50
2023-04-14T02:13:27.134Z,46.60
2023-04-14T02:15:55.657Z,46.80
2023-04-14T02:18:25.538Z,47.00
2023-04-14T02:20:57.255Z,46.60
2023-04-14T02:23:25.868Z,46.40
2023-04-14T02:26:01.510Z,46.40
2023-04-14T02:28:34.387Z,46.50
2023-04-14T02:31:08.574Z,46.70
2023-04-14T02:33:42.297Z,46.90
2023-04-14T02:36:17.860Z,46.80
2023-04-14T02:38:50.706Z,46.60
2023-04-14T02:41:24.429Z,46.50
2023-04-14T02:44:05.001Z,46.50
2023-04-14T02:46:37.133Z,46.60
2023-04-14T02:49:07.929Z,47.10
2023-04-14T02:51:38.913Z,46.60
2023-04-14T02:54:07.507Z,46.40
2023-04-14T02:56:42.356Z,46.30
2023-04-14T02:59:11.350Z,46.60
2023-04-14T03:01:51.292Z,46.50
2023-04-14T03:04:22.875Z,46.30
2023-04-14T03:06:52.757Z,46.50
2023-04-14T03:09:22.914Z,46.30
2023-04-14T03:11:54.038Z,46.30
2023-04-14T03:14:23.336Z,46.10
2023-04-14T03:16:53.663Z,46.10
2023-04-14T03:19:27.957Z,46.20
2023-04-14T03:21:58.791Z,46.00
2023-04-14T03:24:31.000Z,46.00
2023-04-14T03:27:05.462Z,46.00
2023-04-14T03:29:37.836Z,45.80
2023-04-14T03:32:07.910Z,46.00
2023-04-14T03:34:46.474Z,46.20
2023-04-14T03:37:19.143Z,46.90
2023-04-14T03:39:50.797Z,46.80
2023-04-14T03:42:24.931Z,46.10
2023-04-14T03:44:56.121Z,46.20
2023-04-14T03:47:26.908Z,46.10
2023-04-14T03:50:01.125Z,46.00
2023-04-14T03:52:35.336Z,45.90
2023-04-14T03:55:07.109Z,46.00
2023-04-14T03:57:38.528Z,45.90
2023-04-14T04:00:09.472Z,46.10
2023-04-14T04:02:46.799Z,46.30
2023-04-14T04:05:16.950Z,46.40
2023-04-14T04:07:46.865Z,46.10
2023-04-14T04:10:16.292Z,46.20
2023-04-14T04:12:46.677Z,46.20
2023-04-14T04:15:15.606Z,46.20
2023-04-14T04:17:45.750Z,46.20
2023-04-14T04:20:16.746Z,46.30
2023-04-14T04:22:49.699Z,46.20
2023-04-14T04:25:18.648Z,46.30
2023-04-14T04:27:54.324Z,46.50
2023-04-14T04:30:25.231Z,46.80
2023-04-14T04:32:53.424Z,46.90
2023-04-14T04:35:24.705Z,47.10
2023-04-14T04:37:54.540Z,47.30
2023-04-14T04:40:23.886Z,47.70
2023-04-14T04:42:55.903Z,48.20
2023-04-14T04:45:45.804Z,48.10
2023-04-14T04:48:16.730Z,48.10
2023-04-14T04:50:47.172Z,48.60
2023-04-14T04:53:15.490Z,48.70
2023-04-14T04:55:43.741Z,49.20
2023-04-14T04:58:11.939Z,49.90
2023-04-14T05:00:42.101Z,50.90
2023-04-14T05:03:10.296Z,51.80
2023-04-14T05:05:38.861Z,52.50
2023-04-14T05:08:08.836Z,52.50
2023-04-14T05:10:37.592Z,52.90
2023-04-14T05:13:05.983Z,52.40
2023-04-14T05:15:34.704Z,52.90
2023-04-14T05:18:04.145Z,53.60
2023-04-14T05:20:33.779Z,54.10
2023-04-14T05:23:03.003Z,54.10
2023-04-14T05:25:35.517Z,54.40
2023-04-14T05:28:03.619Z,54.10
2023-04-14T05:30:31.826Z,54.20
2023-04-14T05:32:59.968Z,54.60
2023-04-14T05:35:28.183Z,55.00
2023-04-14T05:37:56.553Z,54.60
2023-04-14T05:40:24.865Z,54.40
2023-04-14T05:42:55.390Z,54.80
2023-04-14T05:45:25.108Z,55.00
2023-04-14T05:47:53.271Z,54.30
2023-04-14T05:50:22.335Z,54.30
2023-04-14T05:52:51.095Z,54.50
2023-04-14T05:55:19.745Z,54.70
2023-04-14T05:57:48.072Z,55.00
2023-04-14T06:00:18.078Z,54.80
2023-04-14T06:02:46.671Z,54.80
2023-04-14T06:05:14.906Z,55.00
2023-04-14T06:07:43.494Z,54.80
2023-04-14T06:10:15.127Z,54.30
2023-04-14T06:12:43.249Z,53.60
2023-04-14T06:15:11.639Z,53.80
2023-04-14T06:17:41.813Z,53.60
2023-04-14T06:20:11.327Z,52.80
2023-04-14T06:22:40.534Z,52.70
2023-04-14T06:25:10.873Z,52.80
2023-04-14T06:27:39.064Z,52.20
2023-04-14T06:30:08.572Z,51.80
2023-04-14T06:32:36.829Z,51.70
2023-04-14T06:35:07.581Z,52.10
2023-04-14T06:37:35.757Z,52.00
2023-04-14T06:40:04.046Z,50.90
2023-04-14T06:42:32.162Z,50.80
2023-04-14T06:45:00.352Z,51.30
2023-04-14T06:47:28.506Z,51.50
2023-04-14T06:49:56.671Z,51.80
2023-04-14T06:52:26.153Z,51.50
2023-04-14T06:54:54.372Z,51.50
2023-04-14T06:57:22.938Z,51.20
2023-04-14T06:59:51.196Z,51.20
2023-04-14T07:02:19.493Z,51.30
2023-04-14T07:04:47.771Z,51.10
2023-04-14T07:07:15.978Z,51.20
2023-04-14T07:09:48.448Z,51.30
2023-04-14T07:12:17.722Z,50.80
2023-04-14T07:14:53.912Z,50.60
2023-04-14T07:17:24.574Z,50.40
2023-04-14T07:19:52.846Z,51.00
2023-04-14T07:22:21.364Z,50.40
2023-04-14T07:24:50.965Z,50.00
2023-04-14T07:27:19.149Z,49.80
2023-04-14T07:29:47.410Z,49.70
2023-04-14T07:32:15.926Z,49.80
2023-04-14T07:34:44.305Z,49.40
2023-04-14T07:37:13.785Z,50.00
2023-04-14T07:39:41.998Z,49.10
2023-04-14T07:42:12.232Z,48.80
2023-04-14T07:44:40.581Z,48.80
2023-04-14T07:47:08.853Z,48.80
2023-04-14T07:49:37.301Z,48.50
2023-04-14T07:52:05.801Z,47.80
2023-04-14T07:54:37.205Z,47.70
2023-04-14T07:57:10.924Z,47.90
2023-04-14T07:59:42.791Z,47.90
2023-04-14T08:02:11.428Z,46.50
2023-04-14T08:04:39.806Z,45.70
2023-04-14T08:07:08.037Z,45.70
2023-04-14T08:09:36.230Z,45.70
2023-04-14T08:12:04.611Z,44.80
2023-04-14T08:14:35.620Z,44.50
2023-04-14T08:17:05.426Z,44.50
2023-04-14T08:19:34.014Z,44.00
2023-04-14T08:22:02.408Z,44.50
2023-04-14T08:24:30.595Z,43.70
2023-04-14T08:26:58.800Z,43.70
2023-04-14T08:29:27.008Z,44.20
2023-04-14T08:31:55.409Z,43.80
2023-04-14T08:34:28.593Z,44.20
2023-04-14T08:36:57.704Z,44.10
2023-04-14T08:39:26.136Z,43.70
2023-04-14T08:41:54.626Z,43.60
2023-04-14T08:44:23.347Z,44.00
2023-04-14T08:46:53.422Z,44.20
2023-04-14T08:49:33.270Z,44.00
2023-04-14T08:52:04.031Z,43.70
2023-04-14T08:54:33.127Z,43.40
2023-04-14T08:57:05.294Z,42.40
2023-04-14T08:59:36.596Z,42.00
2023-04-14T09:02:06.750Z,41.90
2023-04-14T09:04:37.311Z,42.20
2023-04-14T09:07:07.044Z,41.10
2023-04-14T09:09:35.496Z,41.10
2023-04-14T09:12:04.829Z,40.50
2023-04-14T09:14:34.455Z,40.60
2023-04-14T09:17:05.601Z,41.20
2023-04-14T09:19:35.868Z,42.50
2023-04-14T09:22:04.207Z,42.90
2023-04-14T09:24:34.308Z,42.00
2023-04-14T09:27:05.118Z,41.90
2023-04-14T09:29:33.645Z,41.50
2023-04-14T09:32:01.936Z,41.60
2023-04-14T09:34:30.288Z,41.80
2023-04-14T09:37:04.873Z,41.20
2023-04-14T09:39:33.716Z,41.30
2023-04-14T09:42:02.735Z,41.80
2023-04-14T09:44:31.059Z,42.40
2023-04-14T09:47:00.790Z,41.40
2023-04-14T09:49:30.174Z,41.30
2023-04-14T09:52:05.543Z,40.80
2023-04-14T09:54:36.639Z,40.80
2023-04-14T09:57:05.115Z,40.90
2023-04-14T09:59:37.727Z,40.10
2023-04-14T10:02:07.915Z,40.30
2023-04-14T10:04:37.346Z,40.30
2023-04-14T10:07:08.917Z,39.90
2023-04-14T10:09:39.639Z,40.00
2023-04-14T10:12:10.180Z,38.50
2023-04-14T10:14:38.907Z,38.80
2023-04-14T10:17:07.727Z,39.30
2023-04-14T10:19:37.586Z,38.80
2023-04-14T10:22:08.201Z,38.40
2023-04-14T10:24:38.590Z,37.70
2023-04-14T10:27:07.408Z,37.60
2023-04-14T10:29:35.996Z,36.60
2023-04-14T10:32:06.323Z,37.10
2023-04-14T10:34:35.096Z,37.00
2023-04-14T10:37:17.345Z,37.30
2023-04-14T10:39:55.911Z,36.00
2023-04-14T10:42:24.825Z,36.60
2023-04-14T10:45:06.876Z,37.50
2023-04-14T10:47:36.195Z,36.50
2023-04-14T10:50:14.959Z,37.20
2023-04-14T10:52:55.854Z,37.30
2023-04-14T10:55:25.756Z,37.00
2023-04-14T10:58:04.749Z,36.10
2023-04-14T11:00:33.300Z,36.20
2023-04-14T11:03:05.772Z,35.60
2023-04-14T11:05:35.063Z,35.20
2023-04-14T11:08:17.308Z,35.60
2023-04-14T11:11:01.226Z,35.70
2023-04-14T11:13:30.331Z,35.50
2023-04-14T11:16:02.267Z,36.30
2023-04-14T11:18:35.722Z,35.50
2023-04-14T11:21:05.727Z,35.50
2023-04-14T11:23:36.767Z,35.50
2023-04-14T11:26:07.138Z,35.10
2023-04-14T11:28:36.491Z,34.70
2023-04-14T11:31:06.281Z,34.80
2023-04-14T11:33:37.031Z,35.30
2023-04-14T11:36:07.124Z,35.20
2023-04-14T11:38:40.241Z,35.00
2023-04-14T11:41:08.802Z,36.00
2023-04-14T11:43:38.581Z,35.30
2023-04-14T11:46:08.212Z,35.90
2023-04-14T11:48:36.947Z,34.90
2023-04-14T11:51:05.491Z,34.50
2023-04-14T11:53:34.630Z,34.40
2023-04-14T11:56:08.680Z,34.40
2023-04-14T11:58:37.158Z,35.20
2023-04-14T12:01:10.602Z,35.50
2023-04-14T12:03:39.380Z,35.00
2023-04-14T12:06:08.127Z,35.30
2023-04-14T12:08:37.114Z,34.20
2023-04-14T12:11:24.567Z,34.20
2023-04-14T12:13:53.141Z,34.50
2023-04-14T12:16:22.061Z,34.10
2023-04-14T12:18:51.332Z,34.30
2023-04-14T12:21:21.250Z,34.30
2023-04-14T12:23:50.114Z,34.60
2023-04-14T12:26:19.479Z,35.00
2023-04-14T12:28:56.928Z,34.60
2023-04-14T12:31:29.577Z,34.60
2023-04-14T12:34:03.273Z,35.40
2023-04-14T12:37:48.201Z,34.80
2023-04-14T12:39:22.088Z,34.70
2023-04-14T12:41:51.931Z,35.10
2023-04-14T12:44:24.321Z,35.70
2023-04-14T12:46:53.989Z,35.50
2023-04-14T12:49:38.613Z,35.10
2023-04-14T12:52:08.309Z,35.40
2023-04-14T12:54:51.655Z,35.50
2023-04-14T12:57:21.637Z,35.80
2023-04-14T12:59:51.993Z,35.70
2023-04-14T13:02:20.438Z,35.50
2023-04-14T13:04:48.682Z,35.70
2023-04-14T13:07:16.956Z,35.70
2023-04-14T13:09:45.334Z,36.20
2023-04-14T13:12:15.956Z,37.20
2023-04-14T13:14:44.161Z,37.70
2023-04-14T13:17:17.271Z,37.70
2023-04-14T13:19:46.038Z,37.40
2023-04-14T13:22:17.425Z,37.70
2023-04-14T13:24:45.989Z,36.90
2023-04-14T13:27:15.790Z,36.60
2023-04-14T13:29:44.254Z,37.60
2023-04-14T13:32:16.197Z,37.70
2023-04-14T13:34:44.890Z,37.30
2023-04-14T13:37:13.116Z,37.50
2023-04-14T13:39:41.371Z,37.70
2023-04-14T13:42:09.704Z,37.60
2023-04-14T13:44:40.698Z,37.40
2023-04-14T13:47:10.032Z,37.50
2023-04-14T13:49:39.604Z,37.70
2023-04-14T13:52:09.140Z,37.70
2023-04-14T13:54:37.375Z,37.70
2023-04-14T13:57:05.965Z,37.40
2023-04-14T13:59:34.331Z,38.00
2023-04-14T14:02:02.657Z,37.70
2023-04-14T14:04:31.641Z,37.70
2023-04-14T14:07:03.902Z,37.70
2023-04-14T14:09:32.112Z,37.70
2023-04-14T14:12:00.359Z,37.70
2023-04-14T14:14:28.708Z,37.60
2023-04-14T14:16:57.118Z,37.70
2023-04-14T14:19:28.365Z,37.70
2023-04-14T14:21:56.625Z,38.00
2023-04-14T14:24:26.214Z,37.90
2023-04-14T14:26:57.912Z,38.10
2023-04-14T14:29:26.221Z,38.20
2023-04-14T14:31:54.444Z,38.80
2023-04-14T14:34:22.668Z,38.10
2023-04-14T14:36:50.901Z,37.80
2023-04-14T14:39:19.343Z,37.70
2023-04-14T14:41:49.272Z,37.70
2023-04-14T14:44:17.786Z,37.50
2023-04-14T14:46:46.243Z,37.40
2023-04-14T14:49:14.634Z,37.40
2023-04-14T14:51:42.772Z,37.20
2023-04-14T14:54:10.940Z,37.10
2023-04-14T14:56:39.171Z,37.60
2023-04-14T14:59:09.597Z,37.20
2023-04-14T15:01:37.830Z,36.50
2023-04-14T15:04:06.776Z,36.60
2023-04-14T15:06:36.011Z,36.60
2023-04-14T15:09:05.435Z,36.60
2023-04-14T15:11:33.619Z,37.30
2023-04-14T15:14:02.130Z,36.80
2023-04-14T15:16:31.779Z,37.00
2023-04-14T15:19:02.503Z,37.40
2023-04-14T15:21:32.822Z,37.40
2023-04-14T15:24:01.875Z,37.00
2023-04-14T15:26:30.220Z,37.30
2023-04-14T15:28:58.417Z,37.50
2023-04-14T15:31:26.621Z,37.10
2023-04-14T15:33:59.585Z,37.70
2023-04-14T15:36:28.074Z,37.30
2023-04-14T15:38:56.293Z,37.50
2023-04-14T15:41:24.559Z,37.80
2023-04-14T15:43:52.740Z,37.30
2023-04-14T15:46:20.934Z,37.20
2023-04-14T15:48:49.336Z,37.20
2023-04-14T15:51:19.620Z,37.20
2023-04-14T15:53:47.757Z,37.00
2023-04-14T15:56:15.866Z,36.70
2023-04-14T15:58:46.392Z,37.00
2023-04-14T16:01:14.611Z,37.20
2023-04-14T16:03:42.908Z,36.80
2023-04-14T16:06:11.443Z,37.30
2023-04-14T16:08:41.019Z,36.90
2023-04-14T16:11:15.127Z,37.50
2023-04-14T16:13:45.565Z,37.10
2023-04-14T16:16:14.821Z,37.40
2023-04-14T16:18:43.373Z,37.40
2023-04-14T16:21:13.883Z,37.60
2023-04-14T16:23:44.025Z,37.90
2023-04-14T16:26:12.455Z,38.10
2023-04-14T16:28:40.671Z,38.20
2023-04-14T16:31:09.204Z,38.00
2023-04-14T16:33:37.867Z,37.80
2023-04-14T16:36:07.267Z,37.50
2023-04-14T16:38:35.537Z,38.20
2023-04-14T16:41:05.122Z,38.50
2023-04-14T16:43:35.889Z,39.00
2023-04-14T16:46:05.055Z,39.20
2023-04-14T16:48:33.475Z,39.40
2023-04-14T16:51:05.556Z,40.20
2023-04-14T16:53:33.971Z,40.50
2023-04-14T16:56:07.373Z,40.80
2023-04-14T16:58:36.536Z,40.20
2023-04-14T17:01:06.123Z,40.20
2023-04-14T17:03:34.805Z,40.40
2023-04-14T17:06:03.241Z,40.60
2023-04-14T17:08:34.165Z,40.50
2023-04-14T17:11:02.325Z,41.50
2023-04-14T17:13:34.268Z,41.40
2023-04-14T17:16:08.846Z,41.90
2023-04-14T17:18:37.656Z,41.50
2023-04-14T17:21:07.000Z,41.70
2023-04-14T17:23:37.014Z,42.10
2023-04-14T17:26:05.608Z,42.00
2023-04-14T17:28:35.719Z,42.00
2023-04-14T17:31:09.969Z,42.70
2023-04-14T17:33:38.187Z,42.70
2023-04-14T17:36:07.980Z,42.60
2023-04-14T17:38:38.570Z,43.20
2023-04-14T17:41:11.629Z,43.50
2023-04-14T17:43:42.414Z,43.20
2023-04-14T17:46:11.681Z,43.70
2023-04-14T17:48:40.324Z,43.50
2023-04-14T17:51:08.595Z,44.00
2023-04-14T17:53:36.779Z,43.60
2023-04-14T17:56:06.712Z,44.40
2023-04-14T17:58:34.853Z,44.20
2023-04-14T18:01:04.820Z,44.10
2023-04-14T18:03:32.989Z,44.60
2023-04-14T18:06:02.668Z,45.00
2023-04-14T18:08:31.031Z,44.80
2023-04-14T18:10:59.958Z,45.80
2023-04-14T18:13:28.683Z,45.60
2023-04-14T18:15:57.379Z,45.10
2023-04-14T18:18:27.588Z,45.90
2023-04-14T18:20:55.762Z,46.40
2023-04-14T18:23:24.792Z,46.20
2023-04-14T18:28:31.007Z,45.80
2023-04-14T18:30:59.465Z,45.70
2023-04-14T18:33:30.416Z,45.80
2023-04-14T18:36:00.334Z,45.70
2023-04-14T18:38:28.667Z,45.40
2023-04-14T18:41:05.222Z,45.10
2023-04-14T18:43:34.292Z,45.40
2023-04-14T18:46:05.279Z,45.10
2023-04-14T18:48:36.751Z,45.00
2023-04-14T18:51:10.261Z,44.70
2023-04-14T18:53:43.323Z,44.70
2023-04-14T18:56:18.029Z,44.60
2023-04-14T18:58:49.308Z,44.70
2023-04-14T19:01:19.778Z,44.30
2023-04-14T19:03:49.503Z,44.90
2023-04-14T19:06:17.788Z,45.10
2023-04-14T19:08:46.076Z,45.10
2023-04-14T19:11:15.256Z,44.80
2023-04-14T19:13:43.405Z,45.00
2023-04-14T19:16:12.611Z,45.10
2023-04-14T19:18:41.812Z,45.20
2023-04-14T19:21:11.350Z,45.00
2023-04-14T19:23:40.867Z,45.10
2023-04-14T19:26:11.383Z,45.10
2023-04-14T19:28:42.656Z,45.60
2023-04-14T19:31:14.148Z,45.20
2023-04-14T19:33:42.598Z,45.50
2023-04-14T19:36:17.644Z,45.40
2023-04-14T19:38:49.317Z,44.80
2023-04-14T19:41:20.798Z,44.90
2023-04-14T19:43:52.280Z,44.90
2023-04-14T19:46:20.429Z,45.30
2023-04-14T19:48:50.180Z,44.40
2023-04-14T19:51:22.325Z,44.40
2023-04-14T19:53:51.639Z,44.20
2023-04-14T19:56:19.816Z,44.40
2023-04-14T19:58:48.098Z,44.00
2023-04-14T20:01:16.394Z,44.40
2023-04-14T20:04:05.465Z,44.30
2023-04-14T20:06:37.992Z,44.50
2023-04-14T20:09:06.464Z,44.40
2023-04-14T20:11:34.711Z,44.50
2023-04-14T20:14:05.935Z,45.00
2023-04-14T20:16:34.768Z,44.90
2023-04-14T20:19:03.590Z,45.10
2023-04-14T20:21:34.231Z,45.20
2023-04-14T20:24:05.870Z,45.00
2023-04-14T20:26:36.022Z,45.10
2023-04-14T20:29:12.778Z,45.40
2023-04-14T20:31:44.123Z,45.60
2023-04-14T20:34:12.627Z,46.10
2023-04-14T20:36:45.195Z,45.80
2023-04-14T20:39:16.722Z,46.30
2023-04-14T20:41:49.361Z,46.40
2023-04-14T20:44:18.635Z,46.40
2023-04-14T20:46:47.403Z,46.10
2023-04-14T20:49:15.585Z,46.50
2023-04-14T20:51:46.763Z,46.60
2023-04-14T20:54:19.032Z,47.00
2023-04-14T20:56:47.283Z,47.30
2023-04-14T20:59:18.520Z,47.80
2023-04-14T21:01:47.043Z,47.90
2023-04-14T21:04:15.790Z,47.70
2023-04-14T21:06:45.129Z,47.70
2023-04-14T21:09:15.627Z,47.90
2023-04-14T21:11:45.881Z,47.50
2023-04-14T21:15:29.324Z,47.80
2023-04-14T21:17:08.487Z,48.30
2023-04-14T21:19:36.653Z,49.20
2023-04-14T21:22:04.836Z,49.30
2023-04-14T21:24:34.267Z,49.70
2023-04-14T21:27:05.840Z,49.70
2023-04-14T21:29:36.454Z,49.40
2023-04-14T21:32:05.352Z,49.30
2023-04-14T21:34:33.642Z,49.00
2023-04-14T21:37:01.886Z,48.60
2023-04-14T21:39:35.468Z,48.80
2023-04-14T21:42:08.173Z,48.80
2023-04-14T21:44:36.630Z,49.20
2023-04-14T21:47:05.103Z,48.90
2023-04-14T21:49:33.375Z,49.30
2023-04-14T21:52:01.568Z,49.00
2023-04-14T21:54:33.428Z,49.60
2023-04-14T21:57:01.633Z,50.00
2023-04-14T21:59:31.264Z,49.60
2023-04-14T22:01:59.768Z,49.40
2023-04-14T22:04:35.973Z,49.20
2023-04-14T22:07:05.421Z,49.50
2023-04-14T22:09:34.381Z,49.60
2023-04-14T22:12:03.302Z,49.10
2023-04-14T22:14:36.063Z,49.40
2023-04-14T22:17:04.387Z,49.30
2023-04-14T22:19:32.944Z,49.60
2023-04-14T22:22:01.131Z,49.50
2023-04-14T22:24:29.588Z,49.70
2023-04-14T22:26:57.795Z,49.50
2023-04-14T22:29:26.012Z,49.90
2023-04-14T22:31:55.590Z,49.70
2023-04-14T22:34:23.806Z,49.40
2023-04-14T22:36:52.037Z,49.20
2023-04-14T22:39:20.325Z,49.20
2023-04-14T22:41:49.651Z,49.50
2023-04-14T22:44:18.165Z,49.40
2023-04-14T22:46:46.356Z,49.50
2023-04-14T22:49:15.913Z,49.60
2023-04-14T22:51:44.077Z,49.20
2023-04-14T22:54:12.316Z,49.30
2023-04-14T22:56:41.036Z,50.00
2023-04-14T22:59:09.218Z,49.70
2023-04-14T23:01:37.408Z,50.30
2023-04-14T23:04:05.862Z,49.50
2023-04-14T23:06:35.517Z,49.60
2023-04-14T23:09:05.479Z,49.40
2023-04-14T23:11:33.758Z,49.30
2023-04-14T23:14:02.773Z,48.80
2023-04-14T23:16:31.075Z,48.20
2023-04-14T23:18:59.398Z,48.00
2023-04-14T23:21:27.772Z,48.10
2023-04-14T23:23:57.424Z,48.50
2023-04-14T23:26:26.405Z,48.30
2023-04-14T23:28:54.586Z,48.80
2023-04-14T23:31:23.959Z,48.00
2023-04-14T23:33:52.852Z,47.50
2023-04-14T23:36:21.447Z,47.20
2023-04-14T23:38:49.766Z,47.50
2023-04-14T23:41:19.569Z,47.50
2023-04-14T23:43:49.428Z,47.20
2023-04-14T23:46:17.657Z,47.00
2023-04-14T23:48:45.989Z,46.90
2023-04-14T23:51:20.690Z,46.80
2023-04-14T23:53:49.541Z,46.90
2023-04-14T23:56:19.352Z,46.90
2023-04-14T23:58:47.543Z,46.80
